Bom Pastor, Brazil
Current Conditions -  °F | °C
As of 1:00 PM on Thursday 23 Oct 2014 (Local Time) from SBVT Reporting Station
Broken Clouds Broken Clouds  
Wind Chill: 77°   Ceiling: 4000
Heat Index: 79°   Visibility: 6mi
Dew Point: 59°   Wind: 7mph
Humidity: 54%   Direction: 140°SE
Pressure: 30.15"   Gusts: NA
Location:  19.27°S, 41.04°W
Report Text: SBVT 231500Z 14006KT 9999 BKN040 25/15 Q1021
Loading
Personal Weather Stations






























Interactive Weather Map
Tropical Storm Tracking
New forecast layout! Learn more

10-Day Weather Forecast

Advertisements
Track Severe Weather on mobile